Login to view Products
 
Sunday, June 24, 2018 (01:21 UTC)
Abu Dhabi International Airport
Last Updated: 24-Jun-2018 (01:20Z)
Wind Dir/Speed: W at 02 kt
Temperature: 30.7°C
Rel. Humidity: 66 %
Pressure: 999.9 hPa
Visibility: 10000 m
ACTUALS
  • METAR OMAA 240100Z 30005KT 270V330 CAVOK 31/24 Q0999 NOSIG
  • TAF OMAA 232300Z 2400/2506 26006KT 8000 NSC BECMG 2403/2405 32014KT BECMG 2417/2419 25006KT PROB30 2500/2503 4000 HZ BECMG 2504/2506 32014KT=
D:\Input Parser\Destinations\Final\23\OMAAL000623001128170084.txt